createdAt,value
2019-05-29T00:00:13.381Z,85.80
2019-05-29T00:02:44.256Z,85.90
2019-05-29T00:05:14.855Z,85.90
2019-05-29T00:07:45.362Z,86.70
2019-05-29T00:10:16.055Z,86.00
2019-05-29T00:12:46.678Z,85.90
2019-05-29T00:15:18.870Z,86.00
2019-05-29T00:17:49.475Z,86.10
2019-05-29T00:20:20.021Z,86.00
2019-05-29T00:22:50.569Z,85.90
2019-05-29T00:25:21.113Z,85.70
2019-05-29T00:27:51.770Z,86.20
2019-05-29T00:30:22.351Z,86.10
2019-05-29T00:32:52.876Z,86.50
2019-05-29T00:35:23.505Z,86.50
2019-05-29T00:37:54.083Z,86.80
2019-05-29T00:40:24.648Z,87.10
2019-05-29T00:42:55.344Z,87.00
2019-05-29T00:45:25.931Z,87.20
2019-05-29T00:47:56.495Z,87.20
2019-05-29T00:50:27.098Z,87.40
2019-05-29T00:52:57.584Z,87.70
2019-05-29T00:55:28.097Z,88.50
2019-05-29T00:57:58.707Z,87.70
2019-05-29T01:00:29.225Z,88.10
2019-05-29T01:03:00.145Z,88.30
2019-05-29T01:05:30.779Z,88.30
2019-05-29T01:08:01.233Z,88.60
2019-05-29T01:10:31.746Z,88.80
2019-05-29T01:13:02.282Z,89.30
2019-05-29T01:15:32.735Z,89.50
2019-05-29T01:18:03.287Z,89.80
2019-05-29T01:20:33.899Z,89.80
2019-05-29T01:23:04.781Z,90.30
2019-05-29T01:25:35.349Z,90.50
2019-05-29T01:28:06.244Z,90.90
2019-05-29T01:30:37.153Z,91.50
2019-05-29T01:33:07.647Z,91.70
2019-05-29T01:35:38.152Z,92.10
2019-05-29T01:38:08.779Z,92.90
2019-05-29T01:40:39.294Z,93.50
2019-05-29T01:43:09.822Z,94.00
2019-05-29T01:45:40.334Z,94.50
2019-05-29T01:48:10.856Z,94.50
2019-05-29T01:50:41.685Z,94.60
2019-05-29T01:53:12.197Z,94.60
2019-05-29T01:55:42.676Z,94.50
2019-05-29T01:58:13.289Z,94.70
2019-05-29T02:00:43.807Z,94.90
2019-05-29T02:03:15.677Z,94.80
2019-05-29T02:05:47.724Z,94.70
2019-05-29T02:08:18.222Z,94.90
2019-05-29T02:10:48.727Z,94.80
2019-05-29T02:13:19.571Z,94.70
2019-05-29T02:15:50.369Z,94.90
2019-05-29T02:18:20.904Z,94.80
2019-05-29T02:20:51.516Z,94.80
2019-05-29T02:23:22.205Z,94.60
2019-05-29T02:25:52.851Z,94.20
2019-05-29T02:28:24.586Z,94.80
2019-05-29T02:30:55.331Z,94.90
2019-05-29T02:33:26.316Z,94.90
2019-05-29T02:35:58.093Z,94.70
2019-05-29T02:38:29.102Z,94.60
2019-05-29T02:40:59.733Z,94.50
2019-05-29T02:43:30.271Z,94.50
2019-05-29T02:46:00.706Z,94.90
2019-05-29T02:48:31.812Z,94.70
2019-05-29T02:51:02.487Z,94.40
2019-05-29T02:53:33.128Z,94.50
2019-05-29T02:56:03.742Z,94.60
2019-05-29T02:58:35.192Z,95.00
2019-05-29T03:01:05.697Z,95.00
2019-05-29T03:03:39.644Z,95.10
2019-05-29T03:06:09.161Z,95.70
2019-05-29T03:08:39.746Z,96.60
2019-05-29T03:11:10.432Z,96.50
2019-05-29T03:13:46.959Z,96.00
2019-05-29T03:19:10.721Z,94.80
2019-05-29T03:21:41.196Z,95.10
2019-05-29T03:24:11.791Z,95.70
2019-05-29T03:26:42.257Z,95.20
2019-05-29T03:29:12.820Z,94.40
2019-05-29T03:31:47.805Z,94.20
2019-05-29T03:34:15.496Z,94.20
2019-05-29T03:36:48.331Z,94.50
2019-05-29T03:39:18.176Z,94.70
2019-05-29T03:41:48.617Z,94.70
2019-05-29T03:44:19.108Z,94.80
2019-05-29T03:46:49.637Z,95.20
2019-05-29T03:49:20.146Z,95.70
2019-05-29T03:51:50.677Z,96.70
2019-05-29T03:54:21.118Z,96.60
2019-05-29T03:56:51.721Z,96.20
2019-05-29T03:59:22.182Z,97.20
2019-05-29T04:01:52.669Z,96.70
2019-05-29T04:04:23.246Z,96.60
2019-05-29T04:07:05.837Z,97.20
2019-05-29T04:09:37.346Z,97.30
2019-05-29T04:12:08.036Z,97.70
2019-05-29T04:14:39.678Z,97.80
2019-05-29T04:17:11.367Z,98.00
2019-05-29T04:19:44.205Z,97.80
2019-05-29T04:22:17.670Z,97.50
2019-05-29T04:24:50.463Z,97.20
2019-05-29T04:27:23.450Z,97.20
2019-05-29T04:29:54.425Z,97.30
2019-05-29T04:32:24.977Z,97.10
2019-05-29T04:34:55.520Z,97.10
2019-05-29T04:37:25.968Z,97.70
2019-05-29T04:39:56.490Z,98.00
2019-05-29T04:42:28.880Z,97.50
2019-05-29T04:44:59.175Z,98.30
2019-05-29T04:47:31.000Z,97.90
2019-05-29T04:50:01.679Z,97.50
2019-05-29T04:52:33.741Z,97.90
2019-05-29T04:55:05.198Z,97.90
2019-05-29T04:57:37.097Z,98.20
2019-05-29T05:00:09.359Z,98.30
2019-05-29T05:02:39.874Z,98.90
2019-05-29T05:05:10.907Z,98.90
2019-05-29T05:07:41.512Z,99.30
2019-05-29T05:10:12.477Z,99.80
2019-05-29T05:12:43.028Z,99.40
2019-05-29T05:15:13.652Z,99.90
2019-05-29T05:17:44.140Z,99.90
2019-05-29T05:20:14.789Z,99.90
2019-05-29T05:22:45.371Z,99.90
2019-05-29T05:25:15.918Z,99.90
2019-05-29T05:27:46.503Z,99.90
2019-05-29T05:30:17.559Z,99.90
2019-05-29T05:32:48.329Z,99.90
2019-05-29T05:35:18.928Z,99.90
2019-05-29T05:37:49.945Z,99.90
2019-05-29T05:40:20.490Z,99.90
2019-05-29T05:42:51.061Z,99.90
2019-05-29T05:45:21.592Z,99.90
2019-05-29T05:47:57.240Z,99.90
2019-05-29T05:50:24.541Z,99.90
2019-05-29T05:52:55.063Z,99.90
2019-05-29T05:55:25.561Z,99.90
2019-05-29T05:57:56.061Z,99.90
2019-05-29T06:00:35.807Z,99.90
2019-05-29T06:03:06.636Z,99.90
2019-05-29T06:05:38.241Z,99.90
2019-05-29T06:08:08.780Z,99.90
2019-05-29T06:10:40.251Z,99.90
2019-05-29T06:13:10.849Z,99.90
2019-05-29T06:15:42.828Z,99.90
2019-05-29T06:18:20.982Z,99.90
2019-05-29T06:20:46.660Z,99.90
2019-05-29T06:23:17.257Z,99.90
2019-05-29T06:25:47.895Z,99.90
2019-05-29T06:28:18.406Z,99.90
2019-05-29T06:30:49.101Z,99.90
2019-05-29T06:33:19.664Z,99.90
2019-05-29T06:35:50.227Z,99.90
2019-05-29T06:38:20.764Z,99.90
2019-05-29T06:40:51.306Z,99.90
2019-05-29T06:43:23.491Z,99.90
2019-05-29T06:45:55.879Z,99.90
2019-05-29T06:48:56.367Z,99.90
2019-05-29T06:50:59.978Z,99.90
2019-05-29T06:53:30.768Z,99.90
2019-05-29T06:56:02.584Z,99.90
2019-05-29T06:58:33.683Z,99.90
2019-05-29T07:01:04.530Z,99.90
2019-05-29T07:03:35.601Z,99.90
2019-05-29T07:06:06.264Z,99.90
2019-05-29T07:08:40.143Z,99.90
2019-05-29T07:11:08.969Z,99.90
2019-05-29T07:13:41.800Z,99.90
2019-05-29T07:16:11.518Z,99.90
2019-05-29T07:19:20.551Z,99.90
2019-05-29T07:21:15.284Z,99.90
2019-05-29T07:23:47.890Z,99.90
2019-05-29T07:26:17.981Z,99.90
2019-05-29T07:29:07.532Z,99.90
2019-05-29T07:31:21.685Z,99.90
2019-05-29T07:33:53.201Z,99.90
2019-05-29T07:36:23.898Z,99.90
2019-05-29T07:39:03.043Z,99.90
2019-05-29T07:41:26.628Z,99.90
2019-05-29T07:43:57.322Z,99.90
2019-05-29T07:46:27.892Z,99.90
2019-05-29T07:48:58.680Z,99.90
2019-05-29T07:51:29.224Z,99.90
2019-05-29T07:53:59.797Z,99.90
2019-05-29T07:56:30.403Z,99.90
2019-05-29T07:59:03.648Z,99.90
2019-05-29T08:01:34.494Z,99.90
2019-05-29T08:04:05.141Z,99.90
2019-05-29T08:06:35.781Z,99.90
2019-05-29T08:09:08.131Z,98.60
2019-05-29T08:11:39.497Z,98.80
2019-05-29T08:14:10.154Z,99.20
2019-05-29T08:16:41.908Z,98.60
2019-05-29T08:19:13.654Z,99.30
2019-05-29T08:21:44.370Z,98.90
2019-05-29T08:24:14.947Z,99.00
2019-05-29T08:26:46.730Z,98.60
2019-05-29T08:29:17.396Z,98.90
2019-05-29T08:31:48.937Z,98.60
2019-05-29T08:34:19.485Z,97.90
2019-05-29T08:37:04.798Z,98.40
2019-05-29T08:39:35.317Z,99.20
2019-05-29T08:42:19.566Z,98.10
2019-05-29T08:44:26.688Z,98.20
2019-05-29T08:47:09.048Z,98.10
2019-05-29T08:49:29.551Z,98.40
2019-05-29T08:52:11.164Z,97.80
2019-05-29T08:54:33.060Z,97.70
2019-05-29T08:57:03.634Z,98.10
2019-05-29T08:59:34.280Z,98.20
2019-05-29T09:02:05.194Z,98.10
2019-05-29T09:04:35.881Z,98.10
2019-05-29T09:07:06.432Z,96.90
2019-05-29T09:09:36.972Z,97.10
2019-05-29T09:12:07.464Z,97.80
2019-05-29T09:14:38.001Z,96.90
2019-05-29T09:17:08.527Z,97.30
2019-05-29T09:19:39.012Z,96.20
2019-05-29T09:22:09.589Z,96.20
2019-05-29T09:24:40.205Z,96.70
2019-05-29T09:27:10.782Z,96.60
2019-05-29T09:29:41.269Z,96.70
2019-05-29T09:32:11.734Z,96.80
2019-05-29T09:34:42.295Z,96.70
2019-05-29T09:37:14.180Z,97.70
2019-05-29T09:39:45.014Z,97.80
2019-05-29T09:42:17.202Z,97.80
2019-05-29T09:44:47.568Z,98.10
2019-05-29T09:47:20.285Z,98.90
2019-05-29T09:49:51.291Z,99.00
2019-05-29T09:52:21.813Z,98.50
2019-05-29T09:54:53.459Z,98.50
2019-05-29T09:57:25.493Z,98.60
2019-05-29T09:59:57.994Z,97.90
2019-05-29T10:02:28.315Z,98.00
2019-05-29T10:05:00.639Z,98.10
2019-05-29T10:07:31.035Z,98.20
2019-05-29T10:10:03.156Z,98.40
2019-05-29T10:12:33.737Z,98.30
2019-05-29T10:15:04.527Z,98.00
2019-05-29T10:17:35.024Z,98.20
2019-05-29T10:20:05.831Z,97.80
2019-05-29T10:22:36.285Z,98.00
2019-05-29T10:25:08.381Z,98.20
2019-05-29T10:27:38.911Z,97.90
2019-05-29T10:30:11.303Z,97.60
2019-05-29T10:32:42.721Z,97.90
2019-05-29T10:35:13.837Z,97.80
2019-05-29T10:37:44.568Z,97.00
2019-05-29T10:40:15.661Z,97.50
2019-05-29T10:42:47.115Z,97.20
2019-05-29T10:45:18.647Z,97.00
2019-05-29T10:47:49.808Z,97.50
2019-05-29T10:50:20.433Z,97.90
2019-05-29T10:52:52.058Z,97.40
2019-05-29T10:55:23.904Z,97.90
2019-05-29T10:57:55.160Z,97.70
2019-05-29T11:02:57.634Z,97.20
2019-05-29T11:05:28.897Z,97.40
2019-05-29T11:07:59.383Z,97.10
2019-05-29T11:10:29.859Z,97.20
2019-05-29T11:13:00.370Z,97.80
2019-05-29T11:15:30.856Z,97.70
2019-05-29T11:18:01.309Z,97.90
2019-05-29T11:20:32.025Z,97.70
2019-05-29T11:23:02.594Z,96.70
2019-05-29T11:25:33.228Z,95.70
2019-05-29T11:28:03.810Z,95.60
2019-05-29T11:30:34.365Z,95.10
2019-05-29T11:33:04.909Z,95.50
2019-05-29T11:35:35.496Z,95.60
2019-05-29T11:38:05.993Z,95.30
2019-05-29T11:40:36.650Z,95.80
2019-05-29T11:43:08.180Z,96.10
2019-05-29T11:45:38.804Z,95.50
2019-05-29T11:48:09.396Z,96.10
2019-05-29T11:50:39.862Z,96.10
2019-05-29T11:53:10.370Z,96.90
2019-05-29T11:55:40.816Z,96.90
2019-05-29T11:58:11.334Z,96.20
2019-05-29T12:00:41.828Z,96.20
2019-05-29T12:03:12.315Z,96.30
2019-05-29T12:05:42.842Z,95.30
2019-05-29T12:08:13.367Z,95.60
2019-05-29T12:10:43.869Z,96.60
2019-05-29T12:13:14.539Z,97.00
2019-05-29T12:15:45.070Z,97.40
2019-05-29T12:18:23.407Z,97.10
2019-05-29T12:20:47.665Z,96.30
2019-05-29T12:23:25.759Z,96.10
2019-05-29T12:26:10.394Z,96.20
2019-05-29T12:28:22.509Z,96.10
2019-05-29T12:30:53.402Z,96.00
2019-05-29T12:33:24.416Z,96.10
2019-05-29T12:35:54.940Z,96.30
2019-05-29T12:38:25.468Z,96.80
2019-05-29T12:40:57.528Z,96.90
2019-05-29T12:43:28.409Z,96.70
2019-05-29T12:46:00.147Z,95.80
2019-05-29T12:48:30.884Z,96.10
2019-05-29T12:51:02.237Z,96.50
2019-05-29T12:53:33.019Z,96.70
2019-05-29T12:56:04.568Z,97.20
2019-05-29T12:58:35.223Z,97.80
2019-05-29T13:01:05.832Z,99.40
2019-05-29T13:03:36.610Z,99.80
2019-05-29T13:06:07.166Z,99.40
2019-05-29T13:08:37.647Z,98.60
2019-05-29T13:11:08.227Z,97.30
2019-05-29T13:13:38.786Z,97.10
2019-05-29T13:16:09.443Z,96.40
2019-05-29T13:18:39.924Z,95.80
2019-05-29T13:21:10.396Z,95.10
2019-05-29T13:23:45.156Z,94.60
2019-05-29T13:26:13.138Z,94.10
2019-05-29T13:28:43.639Z,94.50
2019-05-29T13:31:14.205Z,94.90
2019-05-29T13:33:44.851Z,94.30
2019-05-29T13:36:15.345Z,94.70
2019-05-29T13:38:45.912Z,95.10
2019-05-29T13:41:16.392Z,94.70
2019-05-29T13:43:46.880Z,94.80
2019-05-29T13:46:17.537Z,94.70
2019-05-29T13:48:48.148Z,94.70
2019-05-29T13:51:18.789Z,94.90
2019-05-29T13:54:02.707Z,94.90
2019-05-29T13:56:24.180Z,94.90
2019-05-29T13:58:53.906Z,94.50
2019-05-29T14:01:25.592Z,94.70
2019-05-29T14:03:56.101Z,94.40
2019-05-29T14:06:27.675Z,94.20
2019-05-29T14:08:58.986Z,93.50
2019-05-29T14:11:29.777Z,93.20
2019-05-29T14:14:01.255Z,93.10
2019-05-29T14:16:31.957Z,93.40
2019-05-29T14:19:02.840Z,93.70
2019-05-29T14:21:33.409Z,94.90
2019-05-29T14:24:22.488Z,96.00
2019-05-29T14:26:36.461Z,97.70
2019-05-29T14:29:07.576Z,99.00
2019-05-29T14:31:38.180Z,99.90
2019-05-29T14:34:09.759Z,99.90
2019-05-29T14:36:40.381Z,99.90
2019-05-29T14:39:12.010Z,99.60
2019-05-29T14:41:42.834Z,98.90
2019-05-29T14:44:16.888Z,97.80
2019-05-29T14:46:45.523Z,97.00
2019-05-29T14:49:16.032Z,96.50
2019-05-29T14:51:46.615Z,96.40
2019-05-29T14:54:17.147Z,96.10
2019-05-29T14:56:47.820Z,95.70
2019-05-29T14:59:18.608Z,94.80
2019-05-29T15:01:51.276Z,94.60
2019-05-29T15:04:22.282Z,94.50
2019-05-29T15:06:52.766Z,94.70
2019-05-29T15:09:23.530Z,94.40
2019-05-29T15:11:54.079Z,94.60
2019-05-29T15:14:24.577Z,94.50
2019-05-29T15:16:55.174Z,94.20
2019-05-29T15:19:25.665Z,94.50
2019-05-29T15:21:56.139Z,94.50
2019-05-29T15:24:26.720Z,94.70
2019-05-29T15:26:57.215Z,95.00
2019-05-29T15:29:28.055Z,94.90
2019-05-29T15:31:58.561Z,95.10
2019-05-29T15:34:30.253Z,95.80
2019-05-29T15:37:00.818Z,96.10
2019-05-29T15:39:31.300Z,97.10
2019-05-29T15:42:02.665Z,97.80
2019-05-29T15:44:33.285Z,98.30
2019-05-29T15:47:03.844Z,98.80
2019-05-29T15:49:34.291Z,99.70
2019-05-29T15:52:04.817Z,99.90
2019-05-29T15:54:35.448Z,99.90
2019-05-29T15:57:06.905Z,99.90
2019-05-29T15:59:37.807Z,99.80
2019-05-29T16:02:09.374Z,99.90
2019-05-29T16:04:41.624Z,99.90
2019-05-29T16:07:12.092Z,99.80
2019-05-29T16:09:42.779Z,99.40
2019-05-29T16:12:14.654Z,99.90
2019-05-29T16:14:45.407Z,99.10
2019-05-29T16:17:17.248Z,99.20
2019-05-29T16:19:47.993Z,99.10
2019-05-29T16:22:19.067Z,98.70
2019-05-29T16:24:49.556Z,98.70
2019-05-29T16:27:20.087Z,98.50
2019-05-29T16:29:50.576Z,98.50
2019-05-29T16:32:22.006Z,98.30
2019-05-29T16:34:52.843Z,98.00
2019-05-29T16:37:23.453Z,97.80
2019-05-29T16:39:53.944Z,98.30
2019-05-29T16:42:25.613Z,98.60
2019-05-29T16:44:56.170Z,97.90
2019-05-29T16:47:26.698Z,97.80
2019-05-29T16:49:57.214Z,97.40
2019-05-29T16:52:27.739Z,97.70
2019-05-29T16:54:58.298Z,98.00
2019-05-29T16:57:28.758Z,97.50
2019-05-29T16:59:59.453Z,97.50
2019-05-29T17:02:29.947Z,97.10
2019-05-29T17:05:00.456Z,97.40
2019-05-29T17:07:30.922Z,97.60
2019-05-29T17:10:01.467Z,97.50
2019-05-29T17:12:32.027Z,97.30
2019-05-29T17:15:02.623Z,97.60
2019-05-29T17:17:33.324Z,97.10
2019-05-29T17:20:04.016Z,97.10
2019-05-29T17:22:34.589Z,97.20
2019-05-29T17:25:05.511Z,96.80
2019-05-29T17:27:36.350Z,96.90
2019-05-29T17:30:07.906Z,97.20
2019-05-29T17:32:39.949Z,97.20
2019-05-29T17:35:11.273Z,97.40
2019-05-29T17:37:41.802Z,97.60
2019-05-29T17:40:12.510Z,97.60
2019-05-29T17:42:43.277Z,97.70
2019-05-29T17:45:19.445Z,97.90
2019-05-29T17:47:47.136Z,97.80
2019-05-29T17:50:20.591Z,97.60
2019-05-29T17:52:50.284Z,97.70
2019-05-29T17:55:23.052Z,97.90
2019-05-29T17:57:53.069Z,97.80
2019-05-29T18:00:26.695Z,97.70
2019-05-29T18:02:57.661Z,97.70
2019-05-29T18:05:28.254Z,97.50
2019-05-29T18:08:01.595Z,97.40
2019-05-29T18:10:30.971Z,97.50
2019-05-29T18:13:01.602Z,97.50
2019-05-29T18:15:32.663Z,97.70
2019-05-29T18:18:03.238Z,97.50
2019-05-29T18:20:33.770Z,97.40
2019-05-29T18:23:04.525Z,97.60
2019-05-29T18:25:35.147Z,97.80
2019-05-29T18:28:06.150Z,97.50
2019-05-29T18:30:36.791Z,97.50
2019-05-29T18:33:07.390Z,97.50
2019-05-29T18:35:37.891Z,97.30
2019-05-29T18:38:08.630Z,97.40
2019-05-29T18:40:39.194Z,97.40
2019-05-29T18:43:09.930Z,97.30
2019-05-29T18:45:40.660Z,97.20
2019-05-29T18:48:11.161Z,97.20
2019-05-29T18:50:44.234Z,97.10
2019-05-29T18:53:13.766Z,97.30
2019-05-29T18:55:44.318Z,97.30
2019-05-29T18:58:14.898Z,97.30
2019-05-29T19:00:45.444Z,97.20
2019-05-29T19:03:16.012Z,97.30
2019-05-29T19:05:46.533Z,97.40
2019-05-29T19:08:17.102Z,97.20
2019-05-29T19:10:47.578Z,97.40
2019-05-29T19:13:18.178Z,97.20
2019-05-29T19:15:48.727Z,97.30
2019-05-29T19:18:19.357Z,97.30
2019-05-29T19:20:49.842Z,97.50
2019-05-29T19:23:20.462Z,97.50
2019-05-29T19:25:51.018Z,97.60
2019-05-29T19:28:22.471Z,97.60
2019-05-29T19:30:53.139Z,97.40
2019-05-29T19:33:23.839Z,97.50
2019-05-29T19:35:54.372Z,97.50
2019-05-29T19:38:25.658Z,97.50
2019-05-29T19:40:56.117Z,97.60
2019-05-29T19:43:26.623Z,97.40
2019-05-29T19:45:57.255Z,97.40
2019-05-29T19:48:28.824Z,97.40
2019-05-29T19:50:59.524Z,97.40
2019-05-29T19:53:31.367Z,97.10
2019-05-29T19:56:01.963Z,97.20
2019-05-29T19:58:32.534Z,97.30
2019-05-29T20:01:03.209Z,97.30
2019-05-29T20:03:34.674Z,97.40
2019-05-29T20:06:05.265Z,97.30
2019-05-29T20:08:37.815Z,97.40
2019-05-29T20:11:08.013Z,97.30
2019-05-29T20:13:38.569Z,97.10
2019-05-29T20:16:09.157Z,97.10
2019-05-29T20:18:39.702Z,97.30
2019-05-29T20:21:10.264Z,97.30
2019-05-29T20:23:40.827Z,97.20
2019-05-29T20:26:11.327Z,97.20
2019-05-29T20:28:42.581Z,97.20
2019-05-29T20:31:13.137Z,97.20
2019-05-29T20:33:43.679Z,97.20
2019-05-29T20:36:14.190Z,97.10
2019-05-29T20:38:44.648Z,97.30
2019-05-29T20:41:15.169Z,97.10
2019-05-29T20:43:45.657Z,97.10
2019-05-29T20:46:16.290Z,97.00
2019-05-29T20:48:46.942Z,97.00
2019-05-29T20:51:17.503Z,97.00
2019-05-29T20:53:48.017Z,97.10
2019-05-29T20:56:18.586Z,97.10
2019-05-29T20:58:49.140Z,97.00
2019-05-29T21:01:19.793Z,97.10
2019-05-29T21:03:50.325Z,97.10
2019-05-29T21:06:20.862Z,97.20
2019-05-29T21:08:51.489Z,97.30
2019-05-29T21:11:21.941Z,97.40
2019-05-29T21:13:52.501Z,97.60
2019-05-29T21:16:23.017Z,97.80
2019-05-29T21:18:53.492Z,98.00
2019-05-29T21:21:24.088Z,98.20
2019-05-29T21:23:55.659Z,98.20
2019-05-29T21:26:26.165Z,98.40
2019-05-29T21:28:56.754Z,98.60
2019-05-29T21:31:27.219Z,98.70
2019-05-29T21:33:57.976Z,98.80
2019-05-29T21:36:28.483Z,98.80
2019-05-29T21:38:59.042Z,98.70
2019-05-29T21:41:29.532Z,98.70
2019-05-29T21:44:00.015Z,98.60
2019-05-29T21:46:30.795Z,98.50
2019-05-29T21:49:01.286Z,98.30
2019-05-29T21:51:31.870Z,98.10
2019-05-29T21:54:02.707Z,98.00
2019-05-29T21:56:33.223Z,97.80
2019-05-29T21:59:04.414Z,97.50
2019-05-29T22:01:35.221Z,97.30
2019-05-29T22:04:06.169Z,97.20
2019-05-29T22:06:36.737Z,97.00
2019-05-29T22:09:13.540Z,97.00
2019-05-29T22:11:44.215Z,96.90
2019-05-29T22:14:14.668Z,96.90
2019-05-29T22:16:46.419Z,96.90
2019-05-29T22:19:16.896Z,96.90
2019-05-29T22:21:47.491Z,96.90
2019-05-29T22:24:18.015Z,96.80
2019-05-29T22:26:48.645Z,96.90
2019-05-29T22:29:19.205Z,96.90
2019-05-29T22:31:51.242Z,97.00
2019-05-29T22:34:21.927Z,97.10
2019-05-29T22:36:53.454Z,97.20
2019-05-29T22:39:24.015Z,97.30
2019-05-29T22:41:55.544Z,97.40
2019-05-29T22:44:27.156Z,97.50
2019-05-29T22:46:57.871Z,97.60
2019-05-29T22:49:28.620Z,97.70
2019-05-29T22:51:59.926Z,97.70
2019-05-29T22:54:30.813Z,97.70
2019-05-29T22:57:02.168Z,97.70
2019-05-29T22:59:32.870Z,97.70
2019-05-29T23:02:03.442Z,97.80
2019-05-29T23:04:33.968Z,97.90
2019-05-29T23:07:04.431Z,97.80
2019-05-29T23:09:34.981Z,97.80
2019-05-29T23:12:05.572Z,97.80
2019-05-29T23:14:36.144Z,97.80
2019-05-29T23:17:06.650Z,97.80
2019-05-29T23:19:37.176Z,97.80
2019-05-29T23:22:07.698Z,97.80
2019-05-29T23:24:38.188Z,97.80
2019-05-29T23:27:08.768Z,97.80
2019-05-29T23:29:48.569Z,97.80
2019-05-29T23:32:11.424Z,97.80
2019-05-29T23:34:42.109Z,97.80
2019-05-29T23:37:13.856Z,97.80
2019-05-29T23:39:44.456Z,97.70
2019-05-29T23:42:15.017Z,97.80
2019-05-29T23:44:45.617Z,97.80
2019-05-29T23:47:16.088Z,97.90
2019-05-29T23:49:46.624Z,97.90
2019-05-29T23:52:17.296Z,97.90
2019-05-29T23:54:47.870Z,98.00
2019-05-29T23:57:18.355Z,98.00
